Pegasus Field Blue Ice Runway (NZPG)

Aerodrome — Elev 18
Antarctica
S077.57.48.390 E166.31.28.590
Loading chart...

Current Weather

NZPG 160612Z 31004KT 9999 SCT018 BKN150 M01/M05 A2949 RMK GRID12004KT SDG/HDG LAST

Published 246 days 5 hours 18 minutes ago

Airport Activity

Loading chart...
Loading chart...

Positions

CallsignRadio Name / Freq / Voice Room / TypeFrequencyVoice RoomType
NZCM_FSS McMurdo Radio
128.700
nzcm_fss
128.700nzcm_fss
NZIR_TWR Ice Tower
126.200
nzir_twr
126.200nzir_twr
NZWD_TWR Williams Field Tower
126.200
nzwd_twr
126.200nzwd_twr
UNICOM NZZO UNICOM
122.800
unicom_nzzo
122.800unicom_nzzo